sensor_id;sensor_type;location;lat;lon;timestamp;P1;durP1;ratioP1;P2;durP2;ratioP2
4839;SDS011;2434;48.486;7.964;2024-01-06T00:02:12;26.47;;;13.30;;
4839;SDS011;2434;48.486;7.964;2024-01-06T00:04:42;17.13;;;9.53;;
4839;SDS011;2434;48.486;7.964;2024-01-06T00:07:10;15.77;;;9.53;;
4839;SDS011;2434;48.486;7.964;2024-01-06T00:09:39;15.03;;;9.90;;
4839;SDS011;2434;48.486;7.964;2024-01-06T00:12:07;10.90;;;6.63;;
4839;SDS011;2434;48.486;7.964;2024-01-06T00:14:36;9.83;;;6.10;;
4839;SDS011;2434;48.486;7.964;2024-01-06T00:17:04;9.90;;;5.27;;
4839;SDS011;2434;48.486;7.964;2024-01-06T00:19:32;11.20;;;6.63;;
4839;SDS011;2434;48.486;7.964;2024-01-06T00:22:00;10.10;;;5.83;;
4839;SDS011;2434;48.486;7.964;2024-01-06T00:24:28;11.13;;;5.30;;
4839;SDS011;2434;48.486;7.964;2024-01-06T00:26:56;10.23;;;5.67;;
4839;SDS011;2434;48.486;7.964;2024-01-06T00:29:24;8.17;;;4.30;;
4839;SDS011;2434;48.486;7.964;2024-01-06T00:31:52;6.87;;;3.83;;
4839;SDS011;2434;48.486;7.964;2024-01-06T00:34:20;6.80;;;3.60;;
4839;SDS011;2434;48.486;7.964;2024-01-06T00:36:48;7.40;;;3.50;;
4839;SDS011;2434;48.486;7.964;2024-01-06T00:39:19;5.90;;;3.20;;
4839;SDS011;2434;48.486;7.964;2024-01-06T00:41:47;4.40;;;3.37;;
4839;SDS011;2434;48.486;7.964;2024-01-06T00:44:14;7.73;;;3.80;;
4839;SDS011;2434;48.486;7.964;2024-01-06T00:46:42;7.97;;;3.83;;
4839;SDS011;2434;48.486;7.964;2024-01-06T00:49:10;6.07;;;3.13;;
4839;SDS011;2434;48.486;7.964;2024-01-06T00:51:39;5.57;;;3.40;;
4839;SDS011;2434;48.486;7.964;2024-01-06T00:54:07;7.30;;;3.60;;
4839;SDS011;2434;48.486;7.964;2024-01-06T00:56:36;12.73;;;4.23;;
4839;SDS011;2434;48.486;7.964;2024-01-06T00:59:04;6.47;;;3.83;;
4839;SDS011;2434;48.486;7.964;2024-01-06T01:01:32;4.90;;;2.80;;
4839;SDS011;2434;48.486;7.964;2024-01-06T01:04:00;6.83;;;3.60;;
4839;SDS011;2434;48.486;7.964;2024-01-06T01:06:29;9.60;;;3.73;;
4839;SDS011;2434;48.486;7.964;2024-01-06T01:08:56;6.33;;;4.00;;
4839;SDS011;2434;48.486;7.964;2024-01-06T01:11:24;6.27;;;4.03;;
4839;SDS011;2434;48.486;7.964;2024-01-06T01:13:53;7.80;;;3.73;;
4839;SDS011;2434;48.486;7.964;2024-01-06T01:16:21;11.57;;;4.90;;
4839;SDS011;2434;48.486;7.964;2024-01-06T01:18:49;9.20;;;4.30;;
4839;SDS011;2434;48.486;7.964;2024-01-06T01:21:17;8.43;;;3.80;;
4839;SDS011;2434;48.486;7.964;2024-01-06T01:23:46;7.33;;;4.47;;
4839;SDS011;2434;48.486;7.964;2024-01-06T01:26:14;13.10;;;3.40;;
4839;SDS011;2434;48.486;7.964;2024-01-06T01:28:41;7.97;;;4.13;;
4839;SDS011;2434;48.486;7.964;2024-01-06T01:31:11;7.40;;;4.67;;
4839;SDS011;2434;48.486;7.964;2024-01-06T01:33:40;9.47;;;4.80;;
4839;SDS011;2434;48.486;7.964;2024-01-06T01:36:08;11.97;;;5.50;;
4839;SDS011;2434;48.486;7.964;2024-01-06T01:38:36;9.00;;;5.03;;
4839;SDS011;2434;48.486;7.964;2024-01-06T01:41:04;7.30;;;3.70;;
4839;SDS011;2434;48.486;7.964;2024-01-06T01:43:32;8.97;;;3.63;;
4839;SDS011;2434;48.486;7.964;2024-01-06T01:46:00;6.40;;;2.97;;
4839;SDS011;2434;48.486;7.964;2024-01-06T01:48:30;7.60;;;3.33;;
4839;SDS011;2434;48.486;7.964;2024-01-06T01:51:00;4.23;;;2.70;;
4839;SDS011;2434;48.486;7.964;2024-01-06T01:53:29;5.70;;;2.53;;
4839;SDS011;2434;48.486;7.964;2024-01-06T01:55:58;6.03;;;3.53;;
4839;SDS011;2434;48.486;7.964;2024-01-06T01:58:27;5.67;;;3.30;;
4839;SDS011;2434;48.486;7.964;2024-01-06T02:00:55;11.07;;;3.70;;
4839;SDS011;2434;48.486;7.964;2024-01-06T02:03:23;6.67;;;3.03;;
4839;SDS011;2434;48.486;7.964;2024-01-06T02:05:54;5.40;;;2.87;;
4839;SDS011;2434;48.486;7.964;2024-01-06T02:08:22;6.63;;;3.20;;
4839;SDS011;2434;48.486;7.964;2024-01-06T02:10:51;9.97;;;3.77;;
4839;SDS011;2434;48.486;7.964;2024-01-06T02:13:20;10.27;;;3.20;;
4839;SDS011;2434;48.486;7.964;2024-01-06T02:15:48;7.93;;;3.33;;
4839;SDS011;2434;48.486;7.964;2024-01-06T02:18:17;8.33;;;3.37;;
4839;SDS011;2434;48.486;7.964;2024-01-06T02:20:45;11.87;;;4.00;;
4839;SDS011;2434;48.486;7.964;2024-01-06T02:23:16;10.30;;;3.17;;
4839;SDS011;2434;48.486;7.964;2024-01-06T02:25:44;8.47;;;3.53;;
4839;SDS011;2434;48.486;7.964;2024-01-06T02:28:12;7.50;;;3.83;;
4839;SDS011;2434;48.486;7.964;2024-01-06T02:30:40;7.97;;;3.57;;
4839;SDS011;2434;48.486;7.964;2024-01-06T02:33:08;9.90;;;2.93;;
4839;SDS011;2434;48.486;7.964;2024-01-06T02:35:37;10.27;;;3.50;;
4839;SDS011;2434;48.486;7.964;2024-01-06T02:38:06;7.57;;;3.73;;
4839;SDS011;2434;48.486;7.964;2024-01-06T02:40:36;10.93;;;3.90;;
4839;SDS011;2434;48.486;7.964;2024-01-06T02:43:04;8.33;;;2.90;;
4839;SDS011;2434;48.486;7.964;2024-01-06T02:45:32;9.20;;;3.60;;
4839;SDS011;2434;48.486;7.964;2024-01-06T02:48:00;9.03;;;3.37;;
4839;SDS011;2434;48.486;7.964;2024-01-06T02:50:28;10.77;;;3.27;;
4839;SDS011;2434;48.486;7.964;2024-01-06T02:52:57;7.90;;;3.43;;
4839;SDS011;2434;48.486;7.964;2024-01-06T02:55:25;8.30;;;3.30;;
4839;SDS011;2434;48.486;7.964;2024-01-06T02:57:54;5.13;;;3.57;;
4839;SDS011;2434;48.486;7.964;2024-01-06T03:00:22;9.40;;;2.60;;
4839;SDS011;2434;48.486;7.964;2024-01-06T03:02:51;5.90;;;2.90;;
4839;SDS011;2434;48.486;7.964;2024-01-06T03:05:19;7.13;;;3.30;;
4839;SDS011;2434;48.486;7.964;2024-01-06T03:07:48;5.93;;;3.23;;
4839;SDS011;2434;48.486;7.964;2024-01-06T03:10:16;8.97;;;3.10;;
4839;SDS011;2434;48.486;7.964;2024-01-06T03:12:44;7.50;;;3.67;;
4839;SDS011;2434;48.486;7.964;2024-01-06T03:15:13;9.20;;;3.80;;
4839;SDS011;2434;48.486;7.964;2024-01-06T03:17:42;6.63;;;2.80;;
4839;SDS011;2434;48.486;7.964;2024-01-06T03:20:10;8.50;;;4.30;;
4839;SDS011;2434;48.486;7.964;2024-01-06T03:22:38;11.90;;;3.87;;
4839;SDS011;2434;48.486;7.964;2024-01-06T03:25:06;7.47;;;3.23;;
4839;SDS011;2434;48.486;7.964;2024-01-06T03:27:35;14.00;;;3.10;;
4839;SDS011;2434;48.486;7.964;2024-01-06T03:30:03;7.23;;;2.60;;
4839;SDS011;2434;48.486;7.964;2024-01-06T03:32:34;3.83;;;2.17;;
4839;SDS011;2434;48.486;7.964;2024-01-06T03:35:02;6.10;;;2.50;;
4839;SDS011;2434;48.486;7.964;2024-01-06T03:37:32;7.43;;;2.37;;
4839;SDS011;2434;48.486;7.964;2024-01-06T03:40:00;6.03;;;2.80;;
4839;SDS011;2434;48.486;7.964;2024-01-06T03:42:29;5.90;;;2.80;;
4839;SDS011;2434;48.486;7.964;2024-01-06T03:44:57;7.37;;;2.23;;
4839;SDS011;2434;48.486;7.964;2024-01-06T03:47:25;8.00;;;2.20;;
4839;SDS011;2434;48.486;7.964;2024-01-06T03:49:55;5.87;;;2.43;;
4839;SDS011;2434;48.486;7.964;2024-01-06T03:52:23;6.87;;;2.30;;
4839;SDS011;2434;48.486;7.964;2024-01-06T03:54:51;6.47;;;2.53;;
4839;SDS011;2434;48.486;7.964;2024-01-06T03:57:19;8.70;;;2.87;;
4839;SDS011;2434;48.486;7.964;2024-01-06T03:59:47;9.00;;;2.43;;
4839;SDS011;2434;48.486;7.964;2024-01-06T04:02:15;4.67;;;2.43;;
4839;SDS011;2434;48.486;7.964;2024-01-06T04:04:43;4.10;;;2.00;;
4839;SDS011;2434;48.486;7.964;2024-01-06T04:07:12;4.27;;;2.03;;
4839;SDS011;2434;48.486;7.964;2024-01-06T04:09:41;8.60;;;3.17;;
4839;SDS011;2434;48.486;7.964;2024-01-06T04:12:10;5.50;;;2.97;;
4839;SDS011;2434;48.486;7.964;2024-01-06T04:14:38;7.93;;;2.90;;
4839;SDS011;2434;48.486;7.964;2024-01-06T04:17:06;4.83;;;2.40;;
4839;SDS011;2434;48.486;7.964;2024-01-06T04:19:34;4.63;;;2.30;;
4839;SDS011;2434;48.486;7.964;2024-01-06T04:22:02;6.43;;;3.37;;
4839;SDS011;2434;48.486;7.964;2024-01-06T04:24:31;4.97;;;2.57;;
4839;SDS011;2434;48.486;7.964;2024-01-06T04:27:03;6.80;;;2.27;;
4839;SDS011;2434;48.486;7.964;2024-01-06T04:29:32;4.40;;;1.97;;
4839;SDS011;2434;48.486;7.964;2024-01-06T04:32:00;4.13;;;1.93;;
4839;SDS011;2434;48.486;7.964;2024-01-06T04:34:28;4.60;;;2.20;;
4839;SDS011;2434;48.486;7.964;2024-01-06T04:36:56;4.10;;;2.17;;
4839;SDS011;2434;48.486;7.964;2024-01-06T04:39:24;7.10;;;1.80;;
4839;SDS011;2434;48.486;7.964;2024-01-06T04:41:53;6.70;;;2.63;;
4839;SDS011;2434;48.486;7.964;2024-01-06T04:44:21;4.47;;;2.50;;
4839;SDS011;2434;48.486;7.964;2024-01-06T04:46:49;6.70;;;2.57;;
4839;SDS011;2434;48.486;7.964;2024-01-06T04:49:17;6.83;;;3.27;;
4839;SDS011;2434;48.486;7.964;2024-01-06T04:51:45;5.70;;;2.50;;
4839;SDS011;2434;48.486;7.964;2024-01-06T04:54:15;6.50;;;2.33;;
4839;SDS011;2434;48.486;7.964;2024-01-06T04:56:43;4.80;;;2.20;;
4839;SDS011;2434;48.486;7.964;2024-01-06T04:59:12;8.77;;;2.97;;
4839;SDS011;2434;48.486;7.964;2024-01-06T05:01:40;6.27;;;2.47;;
4839;SDS011;2434;48.486;7.964;2024-01-06T05:04:08;6.70;;;2.67;;
4839;SDS011;2434;48.486;7.964;2024-01-06T05:06:36;5.53;;;2.33;;
4839;SDS011;2434;48.486;7.964;2024-01-06T05:09:04;5.60;;;1.87;;
4839;SDS011;2434;48.486;7.964;2024-01-06T05:11:32;5.60;;;2.73;;
4839;SDS011;2434;48.486;7.964;2024-01-06T05:14:00;3.50;;;2.50;;
4839;SDS011;2434;48.486;7.964;2024-01-06T05:16:30;6.67;;;2.80;;
4839;SDS011;2434;48.486;7.964;2024-01-06T05:18:58;6.00;;;2.07;;
4839;SDS011;2434;48.486;7.964;2024-01-06T05:21:26;7.73;;;2.83;;
4839;SDS011;2434;48.486;7.964;2024-01-06T05:23:54;7.27;;;1.90;;
4839;SDS011;2434;48.486;7.964;2024-01-06T05:26:22;5.03;;;2.00;;
4839;SDS011;2434;48.486;7.964;2024-01-06T05:28:50;3.63;;;2.17;;
4839;SDS011;2434;48.486;7.964;2024-01-06T05:31:18;5.57;;;2.50;;
4839;SDS011;2434;48.486;7.964;2024-01-06T05:33:48;5.03;;;2.60;;
4839;SDS011;2434;48.486;7.964;2024-01-06T05:36:18;14.30;;;5.00;;
4839;SDS011;2434;48.486;7.964;2024-01-06T05:38:46;15.43;;;4.77;;
4839;SDS011;2434;48.486;7.964;2024-01-06T05:41:18;8.10;;;5.30;;
4839;SDS011;2434;48.486;7.964;2024-01-06T05:43:46;13.27;;;5.30;;
4839;SDS011;2434;48.486;7.964;2024-01-06T05:46:20;11.20;;;6.00;;
4839;SDS011;2434;48.486;7.964;2024-01-06T05:48:50;10.87;;;4.70;;
4839;SDS011;2434;48.486;7.964;2024-01-06T05:51:18;7.80;;;4.20;;
4839;SDS011;2434;48.486;7.964;2024-01-06T05:53:46;10.40;;;4.40;;
4839;SDS011;2434;48.486;7.964;2024-01-06T05:56:21;5.20;;;3.60;;
4839;SDS011;2434;48.486;7.964;2024-01-06T05:58:50;6.50;;;3.87;;
4839;SDS011;2434;48.486;7.964;2024-01-06T06:01:19;8.20;;;4.30;;
4839;SDS011;2434;48.486;7.964;2024-01-06T06:03:50;6.80;;;3.93;;
4839;SDS011;2434;48.486;7.964;2024-01-06T06:06:19;8.80;;;4.13;;
4839;SDS011;2434;48.486;7.964;2024-01-06T06:08:47;7.57;;;4.20;;
4839;SDS011;2434;48.486;7.964;2024-01-06T06:11:15;10.23;;;4.80;;
4839;SDS011;2434;48.486;7.964;2024-01-06T06:13:43;8.87;;;4.20;;
4839;SDS011;2434;48.486;7.964;2024-01-06T06:16:11;7.37;;;3.70;;
4839;SDS011;2434;48.486;7.964;2024-01-06T06:18:39;7.03;;;3.20;;
4839;SDS011;2434;48.486;7.964;2024-01-06T06:21:09;6.33;;;3.70;;
4839;SDS011;2434;48.486;7.964;2024-01-06T06:23:37;8.83;;;3.70;;
4839;SDS011;2434;48.486;7.964;2024-01-06T06:26:05;7.97;;;3.97;;
4839;SDS011;2434;48.486;7.964;2024-01-06T06:28:34;4.90;;;3.23;;
4839;SDS011;2434;48.486;7.964;2024-01-06T06:31:02;4.97;;;2.97;;
4839;SDS011;2434;48.486;7.964;2024-01-06T06:33:31;9.57;;;2.90;;
4839;SDS011;2434;48.486;7.964;2024-01-06T06:36:00;7.87;;;3.00;;
4839;SDS011;2434;48.486;7.964;2024-01-06T06:38:30;3.77;;;2.33;;
4839;SDS011;2434;48.486;7.964;2024-01-06T06:40:58;6.50;;;2.80;;
4839;SDS011;2434;48.486;7.964;2024-01-06T06:43:26;4.90;;;1.97;;
4839;SDS011;2434;48.486;7.964;2024-01-06T06:45:54;8.93;;;2.50;;
4839;SDS011;2434;48.486;7.964;2024-01-06T06:48:23;6.07;;;2.50;;
4839;SDS011;2434;48.486;7.964;2024-01-06T06:50:51;7.43;;;3.60;;
4839;SDS011;2434;48.486;7.964;2024-01-06T06:53:19;7.37;;;2.90;;
4839;SDS011;2434;48.486;7.964;2024-01-06T06:55:48;6.80;;;2.73;;
4839;SDS011;2434;48.486;7.964;2024-01-06T06:58:16;8.00;;;3.40;;
4839;SDS011;2434;48.486;7.964;2024-01-06T07:00:44;7.40;;;4.50;;
4839;SDS011;2434;48.486;7.964;2024-01-06T07:03:12;7.63;;;3.87;;
4839;SDS011;2434;48.486;7.964;2024-01-06T07:05:41;10.87;;;5.40;;
4839;SDS011;2434;48.486;7.964;2024-01-06T07:08:09;12.50;;;5.80;;
4839;SDS011;2434;48.486;7.964;2024-01-06T07:10:37;16.00;;;5.43;;
4839;SDS011;2434;48.486;7.964;2024-01-06T07:13:06;8.77;;;4.67;;
4839;SDS011;2434;48.486;7.964;2024-01-06T07:15:34;8.10;;;5.20;;
4839;SDS011;2434;48.486;7.964;2024-01-06T07:18:02;9.90;;;6.00;;
4839;SDS011;2434;48.486;7.964;2024-01-06T07:20:30;10.23;;;5.80;;
4839;SDS011;2434;48.486;7.964;2024-01-06T07:22:58;9.13;;;5.90;;
4839;SDS011;2434;48.486;7.964;2024-01-06T07:25:26;15.87;;;5.90;;
4839;SDS011;2434;48.486;7.964;2024-01-06T07:27:54;17.30;;;6.60;;
4839;SDS011;2434;48.486;7.964;2024-01-06T07:30:24;9.50;;;5.93;;
4839;SDS011;2434;48.486;7.964;2024-01-06T07:32:52;11.97;;;6.20;;
4839;SDS011;2434;48.486;7.964;2024-01-06T07:35:20;9.27;;;5.33;;
4839;SDS011;2434;48.486;7.964;2024-01-06T07:37:48;9.50;;;5.27;;
4839;SDS011;2434;48.486;7.964;2024-01-06T07:40:16;10.33;;;4.77;;
4839;SDS011;2434;48.486;7.964;2024-01-06T07:42:44;12.73;;;5.30;;
4839;SDS011;2434;48.486;7.964;2024-01-06T07:45:12;10.63;;;5.10;;
4839;SDS011;2434;48.486;7.964;2024-01-06T07:47:42;9.07;;;4.60;;
4839;SDS011;2434;48.486;7.964;2024-01-06T07:50:10;9.17;;;3.97;;
4839;SDS011;2434;48.486;7.964;2024-01-06T07:52:38;8.73;;;4.93;;
4839;SDS011;2434;48.486;7.964;2024-01-06T07:55:06;6.50;;;3.90;;
4839;SDS011;2434;48.486;7.964;2024-01-06T07:57:34;7.30;;;3.93;;
4839;SDS011;2434;48.486;7.964;2024-01-06T08:00:03;11.97;;;5.07;;
4839;SDS011;2434;48.486;7.964;2024-01-06T08:02:38;9.47;;;4.30;;
4839;SDS011;2434;48.486;7.964;2024-01-06T08:05:07;8.40;;;3.53;;
4839;SDS011;2434;48.486;7.964;2024-01-06T08:07:36;10.90;;;3.63;;
4839;SDS011;2434;48.486;7.964;2024-01-06T08:10:05;8.03;;;4.83;;
4839;SDS011;2434;48.486;7.964;2024-01-06T08:12:35;16.03;;;4.90;;
4839;SDS011;2434;48.486;7.964;2024-01-06T08:15:04;10.90;;;4.97;;
4839;SDS011;2434;48.486;7.964;2024-01-06T08:17:33;8.93;;;4.00;;
4839;SDS011;2434;48.486;7.964;2024-01-06T08:20:02;7.60;;;4.13;;
4839;SDS011;2434;48.486;7.964;2024-01-06T08:22:32;6.73;;;3.50;;
4839;SDS011;2434;48.486;7.964;2024-01-06T08:25:00;8.67;;;4.30;;
4839;SDS011;2434;48.486;7.964;2024-01-06T08:27:29;5.13;;;3.60;;
4839;SDS011;2434;48.486;7.964;2024-01-06T08:29:57;10.83;;;4.43;;
4839;SDS011;2434;48.486;7.964;2024-01-06T08:32:25;7.07;;;4.67;;
4839;SDS011;2434;48.486;7.964;2024-01-06T08:34:53;6.30;;;4.40;;
4839;SDS011;2434;48.486;7.964;2024-01-06T08:37:21;11.00;;;4.10;;
4839;SDS011;2434;48.486;7.964;2024-01-06T08:39:50;9.43;;;5.07;;
4839;SDS011;2434;48.486;7.964;2024-01-06T08:42:18;11.93;;;6.33;;
4839;SDS011;2434;48.486;7.964;2024-01-06T08:44:46;8.57;;;5.70;;
4839;SDS011;2434;48.486;7.964;2024-01-06T08:47:15;10.53;;;5.63;;
4839;SDS011;2434;48.486;7.964;2024-01-06T08:49:43;13.03;;;6.47;;
4839;SDS011;2434;48.486;7.964;2024-01-06T08:52:11;14.93;;;6.13;;
4839;SDS011;2434;48.486;7.964;2024-01-06T08:54:39;12.40;;;6.20;;
4839;SDS011;2434;48.486;7.964;2024-01-06T08:57:08;15.63;;;6.70;;
4839;SDS011;2434;48.486;7.964;2024-01-06T08:59:36;12.93;;;6.80;;
4839;SDS011;2434;48.486;7.964;2024-01-06T09:02:06;10.30;;;6.17;;
4839;SDS011;2434;48.486;7.964;2024-01-06T09:04:35;12.70;;;6.63;;
4839;SDS011;2434;48.486;7.964;2024-01-06T09:07:03;13.67;;;6.97;;
4839;SDS011;2434;48.486;7.964;2024-01-06T09:09:31;9.60;;;5.93;;
4839;SDS011;2434;48.486;7.964;2024-01-06T09:11:59;7.73;;;5.17;;
4839;SDS011;2434;48.486;7.964;2024-01-06T09:14:29;11.10;;;5.40;;
4839;SDS011;2434;48.486;7.964;2024-01-06T09:16:57;9.70;;;5.50;;
4839;SDS011;2434;48.486;7.964;2024-01-06T09:19:25;11.30;;;6.00;;
4839;SDS011;2434;48.486;7.964;2024-01-06T09:21:54;13.20;;;5.90;;
4839;SDS011;2434;48.486;7.964;2024-01-06T09:24:22;11.20;;;6.17;;
4839;SDS011;2434;48.486;7.964;2024-01-06T09:26:50;8.37;;;4.90;;
4839;SDS011;2434;48.486;7.964;2024-01-06T09:29:18;11.03;;;6.70;;
4839;SDS011;2434;48.486;7.964;2024-01-06T09:31:49;11.17;;;5.23;;
4839;SDS011;2434;48.486;7.964;2024-01-06T09:34:17;14.23;;;7.73;;
4839;SDS011;2434;48.486;7.964;2024-01-06T09:36:45;9.77;;;4.83;;
4839;SDS011;2434;48.486;7.964;2024-01-06T09:39:13;11.67;;;5.90;;
4839;SDS011;2434;48.486;7.964;2024-01-06T09:41:41;10.33;;;5.03;;
4839;SDS011;2434;48.486;7.964;2024-01-06T09:44:09;11.23;;;4.90;;
4839;SDS011;2434;48.486;7.964;2024-01-06T09:46:40;11.67;;;5.40;;
4839;SDS011;2434;48.486;7.964;2024-01-06T09:49:11;8.83;;;5.70;;
4839;SDS011;2434;48.486;7.964;2024-01-06T09:51:41;4.77;;;3.10;;
4839;SDS011;2434;48.486;7.964;2024-01-06T09:54:10;7.40;;;3.57;;
4839;SDS011;2434;48.486;7.964;2024-01-06T09:56:42;5.10;;;3.27;;
4839;SDS011;2434;48.486;7.964;2024-01-06T09:59:13;6.33;;;2.90;;
4839;SDS011;2434;48.486;7.964;2024-01-06T10:01:41;15.03;;;4.10;;
4839;SDS011;2434;48.486;7.964;2024-01-06T10:04:09;27.87;;;14.70;;
4839;SDS011;2434;48.486;7.964;2024-01-06T10:06:45;7.10;;;4.23;;
4839;SDS011;2434;48.486;7.964;2024-01-06T10:09:13;11.37;;;3.90;;
4839;SDS011;2434;48.486;7.964;2024-01-06T10:11:42;6.60;;;3.33;;
4839;SDS011;2434;48.486;7.964;2024-01-06T10:14:09;5.13;;;3.20;;
4839;SDS011;2434;48.486;7.964;2024-01-06T10:16:39;7.73;;;3.80;;
4839;SDS011;2434;48.486;7.964;2024-01-06T10:19:07;4.10;;;3.20;;
4839;SDS011;2434;48.486;7.964;2024-01-06T10:21:36;6.83;;;3.80;;
4839;SDS011;2434;48.486;7.964;2024-01-06T10:24:07;6.73;;;3.50;;
4839;SDS011;2434;48.486;7.964;2024-01-06T10:26:36;6.13;;;3.17;;
4839;SDS011;2434;48.486;7.964;2024-01-06T10:29:04;6.37;;;3.20;;
4839;SDS011;2434;48.486;7.964;2024-01-06T10:31:33;7.50;;;3.30;;
4839;SDS011;2434;48.486;7.964;2024-01-06T10:34:01;4.30;;;2.43;;
4839;SDS011;2434;48.486;7.964;2024-01-06T10:36:30;6.50;;;3.37;;
4839;SDS011;2434;48.486;7.964;2024-01-06T10:39:00;9.30;;;3.60;;
4839;SDS011;2434;48.486;7.964;2024-01-06T10:41:30;6.33;;;3.77;;
4839;SDS011;2434;48.486;7.964;2024-01-06T10:43:59;10.03;;;4.20;;
4839;SDS011;2434;48.486;7.964;2024-01-06T10:46:28;7.77;;;4.00;;
4839;SDS011;2434;48.486;7.964;2024-01-06T10:48:59;7.13;;;4.77;;
4839;SDS011;2434;48.486;7.964;2024-01-06T10:51:28;8.13;;;4.50;;
4839;SDS011;2434;48.486;7.964;2024-01-06T10:53:57;5.60;;;4.20;;
4839;SDS011;2434;48.486;7.964;2024-01-06T10:56:28;9.70;;;4.10;;
4839;SDS011;2434;48.486;7.964;2024-01-06T10:58:57;14.03;;;4.20;;
4839;SDS011;2434;48.486;7.964;2024-01-06T11:01:25;9.70;;;4.90;;
4839;SDS011;2434;48.486;7.964;2024-01-06T11:03:56;7.40;;;4.97;;
4839;SDS011;2434;48.486;7.964;2024-01-06T11:06:25;8.33;;;4.80;;
4839;SDS011;2434;48.486;7.964;2024-01-06T11:08:56;7.60;;;4.80;;
4839;SDS011;2434;48.486;7.964;2024-01-06T11:11:31;9.67;;;5.27;;
4839;SDS011;2434;48.486;7.964;2024-01-06T11:14:18;9.50;;;5.20;;
4839;SDS011;2434;48.486;7.964;2024-01-06T11:16:47;6.30;;;4.40;;
4839;SDS011;2434;48.486;7.964;2024-01-06T11:22:24;7.10;;;4.33;;
4839;SDS011;2434;48.486;7.964;2024-01-06T11:24:56;8.17;;;4.40;;
4839;SDS011;2434;48.486;7.964;2024-01-06T11:27:31;12.13;;;4.50;;
4839;SDS011;2434;48.486;7.964;2024-01-06T11:30:00;7.87;;;4.40;;
4839;SDS011;2434;48.486;7.964;2024-01-06T11:32:32;6.77;;;3.60;;
4839;SDS011;2434;48.486;7.964;2024-01-06T11:35:06;10.03;;;5.13;;
4839;SDS011;2434;48.486;7.964;2024-01-06T11:37:36;7.50;;;4.60;;
4839;SDS011;2434;48.486;7.964;2024-01-06T11:40:23;12.90;;;5.37;;
4839;SDS011;2434;48.486;7.964;2024-01-06T11:42:56;7.27;;;4.50;;
4839;SDS011;2434;48.486;7.964;2024-01-06T11:45:25;11.57;;;8.00;;
4839;SDS011;2434;48.486;7.964;2024-01-06T11:47:54;10.23;;;5.70;;
4839;SDS011;2434;48.486;7.964;2024-01-06T11:50:25;6.40;;;4.67;;
4839;SDS011;2434;48.486;7.964;2024-01-06T11:52:53;7.60;;;5.10;;
4839;SDS011;2434;48.486;7.964;2024-01-06T11:55:24;7.97;;;4.83;;
4839;SDS011;2434;48.486;7.964;2024-01-06T11:57:54;7.90;;;4.90;;
4839;SDS011;2434;48.486;7.964;2024-01-06T12:00:24;6.30;;;4.53;;
4839;SDS011;2434;48.486;7.964;2024-01-06T12:02:55;9.63;;;5.40;;
4839;SDS011;2434;48.486;7.964;2024-01-06T12:05:24;7.67;;;5.10;;
4839;SDS011;2434;48.486;7.964;2024-01-06T12:07:53;7.70;;;5.20;;
4839;SDS011;2434;48.486;7.964;2024-01-06T12:10:24;8.13;;;5.90;;
4839;SDS011;2434;48.486;7.964;2024-01-06T12:12:57;6.93;;;4.67;;
4839;SDS011;2434;48.486;7.964;2024-01-06T12:15:26;9.70;;;4.77;;
4839;SDS011;2434;48.486;7.964;2024-01-06T12:17:55;6.20;;;4.63;;
4839;SDS011;2434;48.486;7.964;2024-01-06T12:20:24;8.07;;;4.50;;
4839;SDS011;2434;48.486;7.964;2024-01-06T12:22:55;9.60;;;5.07;;
4839;SDS011;2434;48.486;7.964;2024-01-06T12:25:25;6.63;;;4.67;;
4839;SDS011;2434;48.486;7.964;2024-01-06T12:27:55;10.53;;;4.97;;
4839;SDS011;2434;48.486;7.964;2024-01-06T12:30:22;7.30;;;4.77;;
4839;SDS011;2434;48.486;7.964;2024-01-06T12:32:52;9.97;;;5.40;;
4839;SDS011;2434;48.486;7.964;2024-01-06T12:35:20;7.63;;;4.80;;
4839;SDS011;2434;48.486;7.964;2024-01-06T12:37:49;9.37;;;5.17;;
4839;SDS011;2434;48.486;7.964;2024-01-06T12:40:18;8.23;;;5.27;;
4839;SDS011;2434;48.486;7.964;2024-01-06T12:42:49;10.07;;;5.73;;
4839;SDS011;2434;48.486;7.964;2024-01-06T12:45:17;7.00;;;5.37;;
4839;SDS011;2434;48.486;7.964;2024-01-06T12:47:45;10.20;;;5.63;;
4839;SDS011;2434;48.486;7.964;2024-01-06T12:50:13;7.10;;;5.07;;
4839;SDS011;2434;48.486;7.964;2024-01-06T12:52:42;10.93;;;4.77;;
4839;SDS011;2434;48.486;7.964;2024-01-06T12:55:12;6.90;;;3.83;;
4839;SDS011;2434;48.486;7.964;2024-01-06T12:57:40;4.53;;;3.67;;
4839;SDS011;2434;48.486;7.964;2024-01-06T13:00:11;4.80;;;3.63;;
4839;SDS011;2434;48.486;7.964;2024-01-06T13:02:40;8.07;;;4.57;;
4839;SDS011;2434;48.486;7.964;2024-01-06T13:05:08;10.17;;;5.77;;
4839;SDS011;2434;48.486;7.964;2024-01-06T13:07:37;7.10;;;4.77;;
4839;SDS011;2434;48.486;7.964;2024-01-06T13:10:06;8.43;;;4.60;;
4839;SDS011;2434;48.486;7.964;2024-01-06T13:12:35;7.07;;;4.43;;
4839;SDS011;2434;48.486;7.964;2024-01-06T13:15:03;7.10;;;4.47;;
4839;SDS011;2434;48.486;7.964;2024-01-06T13:17:34;9.03;;;4.70;;
4839;SDS011;2434;48.486;7.964;2024-01-06T13:20:03;6.70;;;4.40;;
4839;SDS011;2434;48.486;7.964;2024-01-06T13:22:32;8.90;;;4.50;;
4839;SDS011;2434;48.486;7.964;2024-01-06T13:25:00;7.73;;;4.73;;
4839;SDS011;2434;48.486;7.964;2024-01-06T13:27:28;6.73;;;4.03;;
4839;SDS011;2434;48.486;7.964;2024-01-06T13:29:56;5.97;;;4.20;;
4839;SDS011;2434;48.486;7.964;2024-01-06T13:32:25;5.40;;;4.23;;
4839;SDS011;2434;48.486;7.964;2024-01-06T13:34:55;7.40;;;4.00;;
4839;SDS011;2434;48.486;7.964;2024-01-06T13:37:31;8.73;;;4.30;;
4839;SDS011;2434;48.486;7.964;2024-01-06T13:39:59;7.90;;;3.93;;
4839;SDS011;2434;48.486;7.964;2024-01-06T13:42:27;5.47;;;4.40;;
4839;SDS011;2434;48.486;7.964;2024-01-06T13:44:55;6.10;;;4.37;;
4839;SDS011;2434;48.486;7.964;2024-01-06T13:47:26;7.30;;;5.30;;
4839;SDS011;2434;48.486;7.964;2024-01-06T13:49:56;6.80;;;4.50;;
4839;SDS011;2434;48.486;7.964;2024-01-06T13:52:25;6.67;;;4.87;;
4839;SDS011;2434;48.486;7.964;2024-01-06T13:54:53;6.00;;;4.73;;
4839;SDS011;2434;48.486;7.964;2024-01-06T13:57:21;6.13;;;4.40;;
4839;SDS011;2434;48.486;7.964;2024-01-06T13:59:49;7.50;;;4.73;;
4839;SDS011;2434;48.486;7.964;2024-01-06T14:02:17;5.73;;;4.53;;
4839;SDS011;2434;48.486;7.964;2024-01-06T14:04:45;7.67;;;4.37;;
4839;SDS011;2434;48.486;7.964;2024-01-06T14:07:15;6.23;;;4.23;;
4839;SDS011;2434;48.486;7.964;2024-01-06T14:09:45;6.50;;;4.67;;
4839;SDS011;2434;48.486;7.964;2024-01-06T14:12:14;5.83;;;4.30;;
4839;SDS011;2434;48.486;7.964;2024-01-06T14:14:42;7.17;;;4.67;;
4839;SDS011;2434;48.486;7.964;2024-01-06T14:17:10;11.93;;;5.20;;
4839;SDS011;2434;48.486;7.964;2024-01-06T14:19:38;7.20;;;5.10;;
4839;SDS011;2434;48.486;7.964;2024-01-06T14:22:09;10.47;;;5.20;;
4839;SDS011;2434;48.486;7.964;2024-01-06T14:24:38;7.30;;;5.43;;
4839;SDS011;2434;48.486;7.964;2024-01-06T14:27:07;8.77;;;5.70;;
4839;SDS011;2434;48.486;7.964;2024-01-06T14:29:35;8.33;;;5.60;;
4839;SDS011;2434;48.486;7.964;2024-01-06T14:32:04;10.33;;;5.40;;
4839;SDS011;2434;48.486;7.964;2024-01-06T14:34:32;9.00;;;5.53;;
4839;SDS011;2434;48.486;7.964;2024-01-06T14:37:01;10.07;;;5.80;;
4839;SDS011;2434;48.486;7.964;2024-01-06T14:39:29;9.50;;;5.30;;
4839;SDS011;2434;48.486;7.964;2024-01-06T14:41:59;6.67;;;4.87;;
4839;SDS011;2434;48.486;7.964;2024-01-06T14:44:27;6.17;;;5.13;;
4839;SDS011;2434;48.486;7.964;2024-01-06T14:46:56;7.73;;;5.50;;
4839;SDS011;2434;48.486;7.964;2024-01-06T14:49:24;6.17;;;4.63;;
4839;SDS011;2434;48.486;7.964;2024-01-06T14:51:53;6.07;;;4.90;;
4839;SDS011;2434;48.486;7.964;2024-01-06T14:54:21;8.97;;;5.53;;
4839;SDS011;2434;48.486;7.964;2024-01-06T14:56:49;5.97;;;4.83;;
4839;SDS011;2434;48.486;7.964;2024-01-06T14:59:18;8.53;;;6.43;;
4839;SDS011;2434;48.486;7.964;2024-01-06T15:01:46;9.43;;;5.77;;
4839;SDS011;2434;48.486;7.964;2024-01-06T15:04:15;9.37;;;5.87;;
4839;SDS011;2434;48.486;7.964;2024-01-06T15:06:45;7.60;;;6.10;;
4839;SDS011;2434;48.486;7.964;2024-01-06T15:09:13;8.17;;;6.23;;
4839;SDS011;2434;48.486;7.964;2024-01-06T15:11:41;9.60;;;6.40;;
4839;SDS011;2434;48.486;7.964;2024-01-06T15:14:09;9.03;;;6.37;;
4839;SDS011;2434;48.486;7.964;2024-01-06T15:16:39;7.10;;;6.10;;
4839;SDS011;2434;48.486;7.964;2024-01-06T15:19:07;7.63;;;5.97;;
4839;SDS011;2434;48.486;7.964;2024-01-06T15:21:35;9.47;;;5.97;;
4839;SDS011;2434;48.486;7.964;2024-01-06T15:24:03;10.57;;;6.00;;
4839;SDS011;2434;48.486;7.964;2024-01-06T15:26:32;8.23;;;6.77;;